sensor_id;sensor_type;location;lat;lon;timestamp;temperature;humidity
3348;DHT22;1687;49.540;8.574;2024-02-28T00:00:02;6.70;76.20
3348;DHT22;1687;49.540;8.574;2024-02-28T00:02:29;6.70;76.30
3348;DHT22;1687;49.540;8.574;2024-02-28T00:04:55;6.60;76.40
3348;DHT22;1687;49.540;8.574;2024-02-28T00:07:23;6.60;76.30
3348;DHT22;1687;49.540;8.574;2024-02-28T00:09:52;6.60;76.30
3348;DHT22;1687;49.540;8.574;2024-02-28T00:12:25;6.60;76.40
3348;DHT22;1687;49.540;8.574;2024-02-28T00:14:51;6.60;76.50
3348;DHT22;1687;49.540;8.574;2024-02-28T00:17:17;6.60;76.50
3348;DHT22;1687;49.540;8.574;2024-02-28T00:19:43;6.50;76.50
3348;DHT22;1687;49.540;8.574;2024-02-28T00:22:09;6.50;76.70
3348;DHT22;1687;49.540;8.574;2024-02-28T00:24:35;6.50;76.60
3348;DHT22;1687;49.540;8.574;2024-02-28T00:27:01;6.50;76.50
3348;DHT22;1687;49.540;8.574;2024-02-28T00:29:30;6.50;76.60
3348;DHT22;1687;49.540;8.574;2024-02-28T00:31:56;6.40;76.50
3348;DHT22;1687;49.540;8.574;2024-02-28T00:34:23;6.40;76.60
3348;DHT22;1687;49.540;8.574;2024-02-28T00:36:49;6.40;76.60
3348;DHT22;1687;49.540;8.574;2024-02-28T00:39:15;6.30;76.60
3348;DHT22;1687;49.540;8.574;2024-02-28T00:41:41;6.30;76.60
3348;DHT22;1687;49.540;8.574;2024-02-28T00:44:06;6.20;76.60
3348;DHT22;1687;49.540;8.574;2024-02-28T00:46:32;6.20;76.60
3348;DHT22;1687;49.540;8.574;2024-02-28T00:48:58;6.20;76.60
3348;DHT22;1687;49.540;8.574;2024-02-28T00:51:23;6.20;76.80
3348;DHT22;1687;49.540;8.574;2024-02-28T00:53:49;6.10;76.60
3348;DHT22;1687;49.540;8.574;2024-02-28T00:56:15;6.10;76.80
3348;DHT22;1687;49.540;8.574;2024-02-28T00:58:40;6.10;76.90
3348;DHT22;1687;49.540;8.574;2024-02-28T01:01:06;6.10;77.00
3348;DHT22;1687;49.540;8.574;2024-02-28T01:03:32;6.10;76.80
3348;DHT22;1687;49.540;8.574;2024-02-28T01:05:58;6.10;77.00
3348;DHT22;1687;49.540;8.574;2024-02-28T01:08:26;6.00;76.90
3348;DHT22;1687;49.540;8.574;2024-02-28T01:10:52;6.00;77.00
3348;DHT22;1687;49.540;8.574;2024-02-28T01:13:17;6.00;76.90
3348;DHT22;1687;49.540;8.574;2024-02-28T01:15:43;5.90;77.00
3348;DHT22;1687;49.540;8.574;2024-02-28T01:18:09;5.90;77.20
3348;DHT22;1687;49.540;8.574;2024-02-28T01:20:35;6.00;77.40
3348;DHT22;1687;49.540;8.574;2024-02-28T01:23:01;6.00;77.30
3348;DHT22;1687;49.540;8.574;2024-02-28T01:25:27;6.00;77.60
3348;DHT22;1687;49.540;8.574;2024-02-28T01:27:53;6.10;77.60
3348;DHT22;1687;49.540;8.574;2024-02-28T01:30:18;6.00;77.30
3348;DHT22;1687;49.540;8.574;2024-02-28T01:32:44;6.00;77.00
3348;DHT22;1687;49.540;8.574;2024-02-28T01:35:10;5.90;77.00
3348;DHT22;1687;49.540;8.574;2024-02-28T01:37:35;5.90;77.20
3348;DHT22;1687;49.540;8.574;2024-02-28T01:40:01;5.80;77.20
3348;DHT22;1687;49.540;8.574;2024-02-28T01:42:29;5.80;77.30
3348;DHT22;1687;49.540;8.574;2024-02-28T01:44:55;5.80;77.40
3348;DHT22;1687;49.540;8.574;2024-02-28T01:47:21;5.80;77.40
3348;DHT22;1687;49.540;8.574;2024-02-28T01:49:47;5.80;77.20
3348;DHT22;1687;49.540;8.574;2024-02-28T01:52:13;5.70;77.20
3348;DHT22;1687;49.540;8.574;2024-02-28T01:54:39;5.60;77.10
3348;DHT22;1687;49.540;8.574;2024-02-28T01:57:06;5.60;77.20
3348;DHT22;1687;49.540;8.574;2024-02-28T01:59:34;5.50;77.30
3348;DHT22;1687;49.540;8.574;2024-02-28T02:02:00;5.60;77.70
3348;DHT22;1687;49.540;8.574;2024-02-28T02:04:26;5.50;77.40
3348;DHT22;1687;49.540;8.574;2024-02-28T02:06:52;5.50;77.40
3348;DHT22;1687;49.540;8.574;2024-02-28T02:09:23;5.40;77.40
3348;DHT22;1687;49.540;8.574;2024-02-28T02:11:49;5.50;77.50
3348;DHT22;1687;49.540;8.574;2024-02-28T02:14:15;5.40;77.40
3348;DHT22;1687;49.540;8.574;2024-02-28T02:16:40;5.30;77.90
3348;DHT22;1687;49.540;8.574;2024-02-28T02:19:08;5.20;77.40
3348;DHT22;1687;49.540;8.574;2024-02-28T02:21:39;5.20;77.40
3348;DHT22;1687;49.540;8.574;2024-02-28T02:24:06;5.10;77.30
3348;DHT22;1687;49.540;8.574;2024-02-28T02:26:32;5.10;77.50
3348;DHT22;1687;49.540;8.574;2024-02-28T02:28:58;5.10;77.50
3348;DHT22;1687;49.540;8.574;2024-02-28T02:31:23;5.20;77.90
3348;DHT22;1687;49.540;8.574;2024-02-28T02:33:49;5.10;77.70
3348;DHT22;1687;49.540;8.574;2024-02-28T02:36:15;5.10;77.60
3348;DHT22;1687;49.540;8.574;2024-02-28T02:38:40;5.10;77.90
3348;DHT22;1687;49.540;8.574;2024-02-28T02:41:06;5.10;77.90
3348;DHT22;1687;49.540;8.574;2024-02-28T02:43:32;5.10;77.80
3348;DHT22;1687;49.540;8.574;2024-02-28T02:45:57;5.00;77.80
3348;DHT22;1687;49.540;8.574;2024-02-28T02:48:23;5.00;78.00
3348;DHT22;1687;49.540;8.574;2024-02-28T02:50:49;5.00;78.00
3348;DHT22;1687;49.540;8.574;2024-02-28T02:53:14;5.00;78.30
3348;DHT22;1687;49.540;8.574;2024-02-28T02:55:40;5.10;78.60
3348;DHT22;1687;49.540;8.574;2024-02-28T02:58:06;5.20;78.80
3348;DHT22;1687;49.540;8.574;2024-02-28T03:00:31;5.30;78.80
3348;DHT22;1687;49.540;8.574;2024-02-28T03:02:57;5.40;78.90
3348;DHT22;1687;49.540;8.574;2024-02-28T03:05:23;5.50;78.90
3348;DHT22;1687;49.540;8.574;2024-02-28T03:07:48;5.40;78.80
3348;DHT22;1687;49.540;8.574;2024-02-28T03:10:14;5.50;78.90
3348;DHT22;1687;49.540;8.574;2024-02-28T03:12:40;5.50;78.90
3348;DHT22;1687;49.540;8.574;2024-02-28T03:15:06;5.50;78.70
3348;DHT22;1687;49.540;8.574;2024-02-28T03:17:32;5.40;78.30
3348;DHT22;1687;49.540;8.574;2024-02-28T03:20:01;5.30;78.90
3348;DHT22;1687;49.540;8.574;2024-02-28T03:22:28;5.20;78.50
3348;DHT22;1687;49.540;8.574;2024-02-28T03:24:55;5.10;78.30
3348;DHT22;1687;49.540;8.574;2024-02-28T03:27:21;5.10;78.50
3348;DHT22;1687;49.540;8.574;2024-02-28T03:29:47;5.00;78.30
3348;DHT22;1687;49.540;8.574;2024-02-28T03:32:13;4.90;78.50
3348;DHT22;1687;49.540;8.574;2024-02-28T03:34:39;4.80;78.30
3348;DHT22;1687;49.540;8.574;2024-02-28T03:37:04;4.80;78.50
3348;DHT22;1687;49.540;8.574;2024-02-28T03:39:30;4.70;78.50
3348;DHT22;1687;49.540;8.574;2024-02-28T03:41:56;4.70;78.50
3348;DHT22;1687;49.540;8.574;2024-02-28T03:44:22;4.60;78.40
3348;DHT22;1687;49.540;8.574;2024-02-28T03:46:47;4.50;78.50
3348;DHT22;1687;49.540;8.574;2024-02-28T03:49:13;4.50;78.70
3348;DHT22;1687;49.540;8.574;2024-02-28T03:51:40;4.50;78.70
3348;DHT22;1687;49.540;8.574;2024-02-28T03:54:06;4.40;78.90
3348;DHT22;1687;49.540;8.574;2024-02-28T03:56:32;4.40;78.80
3348;DHT22;1687;49.540;8.574;2024-02-28T03:58:58;4.40;79.10
3348;DHT22;1687;49.540;8.574;2024-02-28T04:01:23;4.50;79.20
3348;DHT22;1687;49.540;8.574;2024-02-28T04:03:49;4.50;79.40
3348;DHT22;1687;49.540;8.574;2024-02-28T04:06:15;4.40;79.40
3348;DHT22;1687;49.540;8.574;2024-02-28T04:08:41;4.40;79.00
3348;DHT22;1687;49.540;8.574;2024-02-28T04:11:07;4.40;79.20
3348;DHT22;1687;49.540;8.574;2024-02-28T04:13:33;4.30;79.30
3348;DHT22;1687;49.540;8.574;2024-02-28T04:15:58;4.40;79.90
3348;DHT22;1687;49.540;8.574;2024-02-28T04:18:24;4.50;80.10
3348;DHT22;1687;49.540;8.574;2024-02-28T04:20:50;4.60;81.00
3348;DHT22;1687;49.540;8.574;2024-02-28T04:23:15;4.70;80.40
3348;DHT22;1687;49.540;8.574;2024-02-28T04:25:42;4.70;80.30
3348;DHT22;1687;49.540;8.574;2024-02-28T04:28:08;4.70;80.10
3348;DHT22;1687;49.540;8.574;2024-02-28T04:30:34;4.80;80.30
3348;DHT22;1687;49.540;8.574;2024-02-28T04:33:00;4.80;80.10
3348;DHT22;1687;49.540;8.574;2024-02-28T04:35:26;4.80;80.40
3348;DHT22;1687;49.540;8.574;2024-02-28T04:37:51;4.80;80.50
3348;DHT22;1687;49.540;8.574;2024-02-28T04:40:17;4.80;80.50
3348;DHT22;1687;49.540;8.574;2024-02-28T04:42:43;4.80;80.50
3348;DHT22;1687;49.540;8.574;2024-02-28T04:45:09;4.70;80.10
3348;DHT22;1687;49.540;8.574;2024-02-28T04:47:36;4.60;80.30
3348;DHT22;1687;49.540;8.574;2024-02-28T04:50:02;4.60;80.10
3348;DHT22;1687;49.540;8.574;2024-02-28T04:52:30;4.40;80.00
3348;DHT22;1687;49.540;8.574;2024-02-28T04:54:56;4.30;80.30
3348;DHT22;1687;49.540;8.574;2024-02-28T04:57:22;4.30;80.40
3348;DHT22;1687;49.540;8.574;2024-02-28T04:59:48;4.30;80.80
3348;DHT22;1687;49.540;8.574;2024-02-28T05:02:13;4.30;81.00
3348;DHT22;1687;49.540;8.574;2024-02-28T05:04:39;4.40;81.40
3348;DHT22;1687;49.540;8.574;2024-02-28T05:07:05;4.40;81.20
3348;DHT22;1687;49.540;8.574;2024-02-28T05:09:33;4.30;80.70
3348;DHT22;1687;49.540;8.574;2024-02-28T05:11:59;4.30;80.70
3348;DHT22;1687;49.540;8.574;2024-02-28T05:14:24;4.20;80.70
3348;DHT22;1687;49.540;8.574;2024-02-28T05:16:50;4.10;80.90
3348;DHT22;1687;49.540;8.574;2024-02-28T05:19:16;4.10;81.40
3348;DHT22;1687;49.540;8.574;2024-02-28T05:21:44;4.10;81.30
3348;DHT22;1687;49.540;8.574;2024-02-28T05:24:10;4.10;82.10
3348;DHT22;1687;49.540;8.574;2024-02-28T05:26:36;4.10;81.60
3348;DHT22;1687;49.540;8.574;2024-02-28T05:29:03;4.00;81.40
3348;DHT22;1687;49.540;8.574;2024-02-28T05:31:30;4.00;81.20
3348;DHT22;1687;49.540;8.574;2024-02-28T05:34:00;3.90;81.40
3348;DHT22;1687;49.540;8.574;2024-02-28T05:36:27;3.80;81.30
3348;DHT22;1687;49.540;8.574;2024-02-28T05:38:54;3.60;81.20
3348;DHT22;1687;49.540;8.574;2024-02-28T05:41:21;3.50;81.30
3348;DHT22;1687;49.540;8.574;2024-02-28T05:43:47;3.50;81.50
3348;DHT22;1687;49.540;8.574;2024-02-28T05:46:14;3.40;81.60
3348;DHT22;1687;49.540;8.574;2024-02-28T05:48:41;3.40;82.30
3348;DHT22;1687;49.540;8.574;2024-02-28T05:51:06;3.50;82.80
3348;DHT22;1687;49.540;8.574;2024-02-28T05:53:32;3.50;82.90
3348;DHT22;1687;49.540;8.574;2024-02-28T05:56:01;3.60;83.80
3348;DHT22;1687;49.540;8.574;2024-02-28T05:58:27;3.70;83.60
3348;DHT22;1687;49.540;8.574;2024-02-28T06:00:53;3.70;83.00
3348;DHT22;1687;49.540;8.574;2024-02-28T06:03:19;3.70;83.10
3348;DHT22;1687;49.540;8.574;2024-02-28T06:05:45;3.70;83.10
3348;DHT22;1687;49.540;8.574;2024-02-28T06:08:12;3.60;83.40
3348;DHT22;1687;49.540;8.574;2024-02-28T06:10:38;3.60;83.50
3348;DHT22;1687;49.540;8.574;2024-02-28T06:13:04;3.60;83.70
3348;DHT22;1687;49.540;8.574;2024-02-28T06:15:29;3.60;84.00
3348;DHT22;1687;49.540;8.574;2024-02-28T06:17:59;3.70;84.70
3348;DHT22;1687;49.540;8.574;2024-02-28T06:20:26;3.70;84.60
3348;DHT22;1687;49.540;8.574;2024-02-28T06:22:52;3.70;84.10
3348;DHT22;1687;49.540;8.574;2024-02-28T06:25:18;3.70;85.00
3348;DHT22;1687;49.540;8.574;2024-02-28T06:27:45;3.80;86.00
3348;DHT22;1687;49.540;8.574;2024-02-28T06:30:11;4.00;86.20
3348;DHT22;1687;49.540;8.574;2024-02-28T06:32:40;4.10;86.30
3348;DHT22;1687;49.540;8.574;2024-02-28T06:35:07;4.20;86.20
3348;DHT22;1687;49.540;8.574;2024-02-28T06:37:34;4.20;85.70
3348;DHT22;1687;49.540;8.574;2024-02-28T06:40:00;4.20;86.10
3348;DHT22;1687;49.540;8.574;2024-02-28T06:42:26;4.20;85.50
3348;DHT22;1687;49.540;8.574;2024-02-28T06:44:51;4.20;85.50
3348;DHT22;1687;49.540;8.574;2024-02-28T06:47:17;4.20;85.40
3348;DHT22;1687;49.540;8.574;2024-02-28T06:49:43;4.10;85.30
3348;DHT22;1687;49.540;8.574;2024-02-28T06:52:09;4.10;86.50
3348;DHT22;1687;49.540;8.574;2024-02-28T06:54:35;4.20;86.60
3348;DHT22;1687;49.540;8.574;2024-02-28T06:57:01;4.20;86.20
3348;DHT22;1687;49.540;8.574;2024-02-28T06:59:28;4.20;86.20
3348;DHT22;1687;49.540;8.574;2024-02-28T07:01:53;4.20;86.90
3348;DHT22;1687;49.540;8.574;2024-02-28T07:04:19;4.30;87.10
3348;DHT22;1687;49.540;8.574;2024-02-28T07:06:45;4.40;88.70
3348;DHT22;1687;49.540;8.574;2024-02-28T07:09:11;4.60;88.30
3348;DHT22;1687;49.540;8.574;2024-02-28T07:11:37;4.70;88.10
3348;DHT22;1687;49.540;8.574;2024-02-28T07:14:04;4.80;88.10
3348;DHT22;1687;49.540;8.574;2024-02-28T07:16:30;4.90;88.00
3348;DHT22;1687;49.540;8.574;2024-02-28T07:18:57;4.90;87.40
3348;DHT22;1687;49.540;8.574;2024-02-28T07:21:23;4.90;87.60
3348;DHT22;1687;49.540;8.574;2024-02-28T07:23:49;4.90;87.40
3348;DHT22;1687;49.540;8.574;2024-02-28T07:26:15;4.90;88.00
3348;DHT22;1687;49.540;8.574;2024-02-28T07:28:41;4.90;87.70
3348;DHT22;1687;49.540;8.574;2024-02-28T07:31:07;4.80;87.70
3348;DHT22;1687;49.540;8.574;2024-02-28T07:33:32;4.80;87.20
3348;DHT22;1687;49.540;8.574;2024-02-28T07:35:58;4.80;87.60
3348;DHT22;1687;49.540;8.574;2024-02-28T07:38:27;4.80;87.30
3348;DHT22;1687;49.540;8.574;2024-02-28T07:40:53;4.70;87.40
3348;DHT22;1687;49.540;8.574;2024-02-28T07:43:18;4.80;88.60
3348;DHT22;1687;49.540;8.574;2024-02-28T07:45:44;4.90;88.90
3348;DHT22;1687;49.540;8.574;2024-02-28T07:48:10;5.00;88.30
3348;DHT22;1687;49.540;8.574;2024-02-28T07:50:35;4.90;88.40
3348;DHT22;1687;49.540;8.574;2024-02-28T07:53:02;5.00;88.90
3348;DHT22;1687;49.540;8.574;2024-02-28T07:55:28;5.00;89.30
3348;DHT22;1687;49.540;8.574;2024-02-28T07:57:54;5.10;89.40
3348;DHT22;1687;49.540;8.574;2024-02-28T08:00:20;5.30;90.20
3348;DHT22;1687;49.540;8.574;2024-02-28T08:02:46;5.30;88.90
3348;DHT22;1687;49.540;8.574;2024-02-28T08:05:13;5.30;89.50
3348;DHT22;1687;49.540;8.574;2024-02-28T08:07:40;5.40;88.80
3348;DHT22;1687;49.540;8.574;2024-02-28T08:10:07;5.40;90.10
3348;DHT22;1687;49.540;8.574;2024-02-28T08:12:35;5.50;90.20
3348;DHT22;1687;49.540;8.574;2024-02-28T08:15:02;5.70;90.60
3348;DHT22;1687;49.540;8.574;2024-02-28T08:17:28;5.70;89.40
3348;DHT22;1687;49.540;8.574;2024-02-28T08:19:54;5.60;90.00
3348;DHT22;1687;49.540;8.574;2024-02-28T08:22:19;5.70;90.00
3348;DHT22;1687;49.540;8.574;2024-02-28T08:24:45;5.70;90.20
3348;DHT22;1687;49.540;8.574;2024-02-28T08:27:11;5.80;90.30
3348;DHT22;1687;49.540;8.574;2024-02-28T08:29:40;5.80;90.50
3348;DHT22;1687;49.540;8.574;2024-02-28T08:32:10;6.00;91.00
3348;DHT22;1687;49.540;8.574;2024-02-28T08:34:36;6.00;90.30
3348;DHT22;1687;49.540;8.574;2024-02-28T08:37:02;6.00;90.40
3348;DHT22;1687;49.540;8.574;2024-02-28T08:39:27;6.00;90.40
3348;DHT22;1687;49.540;8.574;2024-02-28T08:41:53;6.00;90.10
3348;DHT22;1687;49.540;8.574;2024-02-28T08:44:19;6.00;90.20
3348;DHT22;1687;49.540;8.574;2024-02-28T08:46:47;6.00;90.30
3348;DHT22;1687;49.540;8.574;2024-02-28T08:49:14;6.00;90.70
3348;DHT22;1687;49.540;8.574;2024-02-28T08:51:39;6.10;90.70
3348;DHT22;1687;49.540;8.574;2024-02-28T08:54:05;6.10;90.40
3348;DHT22;1687;49.540;8.574;2024-02-28T08:56:31;6.10;90.40
3348;DHT22;1687;49.540;8.574;2024-02-28T08:58:57;6.20;91.00
3348;DHT22;1687;49.540;8.574;2024-02-28T09:01:22;6.40;91.10
3348;DHT22;1687;49.540;8.574;2024-02-28T09:03:48;6.50;90.90
3348;DHT22;1687;49.540;8.574;2024-02-28T09:06:14;6.60;91.20
3348;DHT22;1687;49.540;8.574;2024-02-28T09:08:40;6.80;91.30
3348;DHT22;1687;49.540;8.574;2024-02-28T09:11:05;7.00;91.00
3348;DHT22;1687;49.540;8.574;2024-02-28T09:13:31;7.10;91.20
3348;DHT22;1687;49.540;8.574;2024-02-28T09:15:57;7.20;91.40
3348;DHT22;1687;49.540;8.574;2024-02-28T09:18:23;7.50;91.70
3348;DHT22;1687;49.540;8.574;2024-02-28T09:20:49;7.70;91.10
3348;DHT22;1687;49.540;8.574;2024-02-28T09:23:15;7.70;90.40
3348;DHT22;1687;49.540;8.574;2024-02-28T09:25:40;7.80;90.50
3348;DHT22;1687;49.540;8.574;2024-02-28T09:28:06;7.70;90.50
3348;DHT22;1687;49.540;8.574;2024-02-28T09:30:32;7.90;90.90
3348;DHT22;1687;49.540;8.574;2024-02-28T09:32:57;8.00;91.00
3348;DHT22;1687;49.540;8.574;2024-02-28T09:35:23;8.20;90.70
3348;DHT22;1687;49.540;8.574;2024-02-28T09:37:49;8.30;90.70
3348;DHT22;1687;49.540;8.574;2024-02-28T09:40:16;8.50;90.80
3348;DHT22;1687;49.540;8.574;2024-02-28T09:42:42;8.50;90.20
3348;DHT22;1687;49.540;8.574;2024-02-28T09:45:12;8.60;90.70
3348;DHT22;1687;49.540;8.574;2024-02-28T09:47:39;8.80;90.70
3348;DHT22;1687;49.540;8.574;2024-02-28T09:50:05;9.00;90.30
3348;DHT22;1687;49.540;8.574;2024-02-28T09:52:31;9.10;90.30
3348;DHT22;1687;49.540;8.574;2024-02-28T09:54:57;9.20;89.70
3348;DHT22;1687;49.540;8.574;2024-02-28T09:57:23;9.20;89.00
3348;DHT22;1687;49.540;8.574;2024-02-28T09:59:57;9.20;88.80
3348;DHT22;1687;49.540;8.574;2024-02-28T10:02:24;9.30;88.20
3348;DHT22;1687;49.540;8.574;2024-02-28T10:04:51;9.30;89.80
3348;DHT22;1687;49.540;8.574;2024-02-28T10:07:17;9.50;90.10
3348;DHT22;1687;49.540;8.574;2024-02-28T10:09:43;9.70;89.60
3348;DHT22;1687;49.540;8.574;2024-02-28T10:12:09;9.80;88.70
3348;DHT22;1687;49.540;8.574;2024-02-28T10:14:35;10.00;88.10
3348;DHT22;1687;49.540;8.574;2024-02-28T10:17:00;10.00;87.30
3348;DHT22;1687;49.540;8.574;2024-02-28T10:19:26;10.10;87.00
3348;DHT22;1687;49.540;8.574;2024-02-28T10:21:52;10.20;86.60
3348;DHT22;1687;49.540;8.574;2024-02-28T10:24:18;10.30;87.00
3348;DHT22;1687;49.540;8.574;2024-02-28T10:26:47;10.30;85.20
3348;DHT22;1687;49.540;8.574;2024-02-28T10:29:25;10.50;86.10
3348;DHT22;1687;49.540;8.574;2024-02-28T10:31:51;10.50;85.10
3348;DHT22;1687;49.540;8.574;2024-02-28T10:34:17;10.60;84.50
3348;DHT22;1687;49.540;8.574;2024-02-28T10:36:44;10.50;84.20
3348;DHT22;1687;49.540;8.574;2024-02-28T10:39:11;10.50;84.30
3348;DHT22;1687;49.540;8.574;2024-02-28T10:41:41;10.50;84.40
3348;DHT22;1687;49.540;8.574;2024-02-28T10:44:08;10.70;85.00
3348;DHT22;1687;49.540;8.574;2024-02-28T10:46:37;10.80;84.30
3348;DHT22;1687;49.540;8.574;2024-02-28T10:49:05;10.70;82.50
3348;DHT22;1687;49.540;8.574;2024-02-28T10:51:34;10.50;82.10
3348;DHT22;1687;49.540;8.574;2024-02-28T10:54:09;10.40;83.20
3348;DHT22;1687;49.540;8.574;2024-02-28T10:56:40;10.50;82.90
3348;DHT22;1687;49.540;8.574;2024-02-28T10:59:07;10.70;83.00
3348;DHT22;1687;49.540;8.574;2024-02-28T11:01:39;10.80;82.40
3348;DHT22;1687;49.540;8.574;2024-02-28T11:04:13;10.70;81.20
3348;DHT22;1687;49.540;8.574;2024-02-28T11:07:00;10.60;81.50
3348;DHT22;1687;49.540;8.574;2024-02-28T11:09:28;10.60;81.30
3348;DHT22;1687;49.540;8.574;2024-02-28T11:11:55;10.80;81.70
3348;DHT22;1687;49.540;8.574;2024-02-28T11:14:22;11.00;81.90
3348;DHT22;1687;49.540;8.574;2024-02-28T11:17:00;11.10;81.50
3348;DHT22;1687;49.540;8.574;2024-02-28T11:19:28;11.10;80.60
3348;DHT22;1687;49.540;8.574;2024-02-28T11:21:59;11.20;81.20
3348;DHT22;1687;49.540;8.574;2024-02-28T11:24:33;11.40;81.20
3348;DHT22;1687;49.540;8.574;2024-02-28T11:27:00;11.60;81.40
3348;DHT22;1687;49.540;8.574;2024-02-28T11:29:28;11.80;81.40
3348;DHT22;1687;49.540;8.574;2024-02-28T11:31:54;12.00;81.10
3348;DHT22;1687;49.540;8.574;2024-02-28T11:34:21;12.00;80.00
3348;DHT22;1687;49.540;8.574;2024-02-28T11:36:50;12.00;79.60
3348;DHT22;1687;49.540;8.574;2024-02-28T11:39:17;12.00;79.90
3348;DHT22;1687;49.540;8.574;2024-02-28T11:41:43;11.80;78.50
3348;DHT22;1687;49.540;8.574;2024-02-28T11:44:16;11.70;78.50
3348;DHT22;1687;49.540;8.574;2024-02-28T11:46:45;11.60;78.30
3348;DHT22;1687;49.540;8.574;2024-02-28T11:49:15;11.60;78.90
3348;DHT22;1687;49.540;8.574;2024-02-28T11:51:42;11.70;78.80
3348;DHT22;1687;49.540;8.574;2024-02-28T11:54:08;11.90;78.70
3348;DHT22;1687;49.540;8.574;2024-02-28T11:56:38;11.90;78.10
3348;DHT22;1687;49.540;8.574;2024-02-28T11:59:05;12.00;78.10
3348;DHT22;1687;49.540;8.574;2024-02-28T12:01:35;12.00;77.90
3348;DHT22;1687;49.540;8.574;2024-02-28T12:04:02;12.00;77.30
3348;DHT22;1687;49.540;8.574;2024-02-28T12:06:30;12.00;78.40
3348;DHT22;1687;49.540;8.574;2024-02-28T12:08:56;12.00;76.80
3348;DHT22;1687;49.540;8.574;2024-02-28T12:11:24;11.80;76.20
3348;DHT22;1687;49.540;8.574;2024-02-28T12:13:53;11.70;76.30
3348;DHT22;1687;49.540;8.574;2024-02-28T12:16:25;11.80;77.00
3348;DHT22;1687;49.540;8.574;2024-02-28T12:18:54;12.00;77.00
3348;DHT22;1687;49.540;8.574;2024-02-28T12:21:20;12.10;77.00
3348;DHT22;1687;49.540;8.574;2024-02-28T12:23:46;12.00;75.90
3348;DHT22;1687;49.540;8.574;2024-02-28T12:26:14;12.00;75.80
3348;DHT22;1687;49.540;8.574;2024-02-28T12:28:41;11.90;75.30
3348;DHT22;1687;49.540;8.574;2024-02-28T12:31:07;11.90;75.70
3348;DHT22;1687;49.540;8.574;2024-02-28T12:33:37;11.90;75.40
3348;DHT22;1687;49.540;8.574;2024-02-28T12:36:02;11.90;75.40
3348;DHT22;1687;49.540;8.574;2024-02-28T12:38:30;12.00;75.40
3348;DHT22;1687;49.540;8.574;2024-02-28T12:40:56;12.10;75.30
3348;DHT22;1687;49.540;8.574;2024-02-28T12:43:23;12.10;74.80
3348;DHT22;1687;49.540;8.574;2024-02-28T12:45:48;12.00;74.50
3348;DHT22;1687;49.540;8.574;2024-02-28T12:48:14;12.00;74.60
3348;DHT22;1687;49.540;8.574;2024-02-28T12:50:40;12.00;75.00
3348;DHT22;1687;49.540;8.574;2024-02-28T12:53:05;12.30;75.30
3348;DHT22;1687;49.540;8.574;2024-02-28T12:55:31;12.20;74.10
3348;DHT22;1687;49.540;8.574;2024-02-28T12:57:57;12.20;75.10
3348;DHT22;1687;49.540;8.574;2024-02-28T13:00:25;12.20;74.10
3348;DHT22;1687;49.540;8.574;2024-02-28T13:02:50;12.20;73.80
3348;DHT22;1687;49.540;8.574;2024-02-28T13:05:16;12.30;73.90
3348;DHT22;1687;49.540;8.574;2024-02-28T13:07:42;12.20;73.30
3348;DHT22;1687;49.540;8.574;2024-02-28T13:10:08;12.30;73.80
3348;DHT22;1687;49.540;8.574;2024-02-28T13:12:34;12.30;73.50
3348;DHT22;1687;49.540;8.574;2024-02-28T13:15:00;12.40;73.40
3348;DHT22;1687;49.540;8.574;2024-02-28T13:17:26;12.40;73.30
3348;DHT22;1687;49.540;8.574;2024-02-28T13:19:51;12.50;73.10
3348;DHT22;1687;49.540;8.574;2024-02-28T13:22:17;12.50;73.10
3348;DHT22;1687;49.540;8.574;2024-02-28T13:24:43;12.70;73.30
3348;DHT22;1687;49.540;8.574;2024-02-28T13:27:09;12.70;72.70
3348;DHT22;1687;49.540;8.574;2024-02-28T13:32:10;12.90;72.80
3348;DHT22;1687;49.540;8.574;2024-02-28T13:34:36;13.00;72.30
3348;DHT22;1687;49.540;8.574;2024-02-28T13:37:01;12.90;72.00
3348;DHT22;1687;49.540;8.574;2024-02-28T13:39:27;13.00;72.50
3348;DHT22;1687;49.540;8.574;2024-02-28T13:41:53;13.20;72.50
3348;DHT22;1687;49.540;8.574;2024-02-28T13:44:19;13.30;72.20
3348;DHT22;1687;49.540;8.574;2024-02-28T13:46:45;13.50;72.50
3348;DHT22;1687;49.540;8.574;2024-02-28T13:49:14;13.70;72.20
3348;DHT22;1687;49.540;8.574;2024-02-28T13:51:42;13.70;72.00
3348;DHT22;1687;49.540;8.574;2024-02-28T13:54:08;13.90;72.10
3348;DHT22;1687;49.540;8.574;2024-02-28T13:56:33;13.90;71.30
3348;DHT22;1687;49.540;8.574;2024-02-28T13:58:59;14.00;71.60
3348;DHT22;1687;49.540;8.574;2024-02-28T14:01:25;14.10;71.40
3348;DHT22;1687;49.540;8.574;2024-02-28T14:03:51;14.10;71.10
3348;DHT22;1687;49.540;8.574;2024-02-28T14:06:16;14.10;70.60
3348;DHT22;1687;49.540;8.574;2024-02-28T14:08:42;13.90;70.20
3348;DHT22;1687;49.540;8.574;2024-02-28T14:11:08;13.90;70.30
3348;DHT22;1687;49.540;8.574;2024-02-28T14:13:34;13.80;70.10
3348;DHT22;1687;49.540;8.574;2024-02-28T14:15:59;13.80;69.60
3348;DHT22;1687;49.540;8.574;2024-02-28T14:18:25;13.70;69.50
3348;DHT22;1687;49.540;8.574;2024-02-28T14:20:51;13.80;69.90
3348;DHT22;1687;49.540;8.574;2024-02-28T14:23:16;13.90;69.60
3348;DHT22;1687;49.540;8.574;2024-02-28T14:25:43;14.00;69.50
3348;DHT22;1687;49.540;8.574;2024-02-28T14:28:09;14.10;69.00
3348;DHT22;1687;49.540;8.574;2024-02-28T14:30:35;14.10;68.80
3348;DHT22;1687;49.540;8.574;2024-02-28T14:33:00;14.20;68.80
3348;DHT22;1687;49.540;8.574;2024-02-28T14:35:26;14.40;69.40
3348;DHT22;1687;49.540;8.574;2024-02-28T14:37:52;14.70;69.00
3348;DHT22;1687;49.540;8.574;2024-02-28T14:40:18;14.80;68.60
3348;DHT22;1687;49.540;8.574;2024-02-28T14:42:44;14.90;68.50
3348;DHT22;1687;49.540;8.574;2024-02-28T14:45:13;15.00;68.60
3348;DHT22;1687;49.540;8.574;2024-02-28T14:47:43;15.10;68.10
3348;DHT22;1687;49.540;8.574;2024-02-28T14:50:10;15.20;67.80
3348;DHT22;1687;49.540;8.574;2024-02-28T14:52:40;15.30;68.30
3348;DHT22;1687;49.540;8.574;2024-02-28T14:55:08;15.40;67.50
3348;DHT22;1687;49.540;8.574;2024-02-28T14:57:35;15.40;67.50
3348;DHT22;1687;49.540;8.574;2024-02-28T15:00:01;15.50;68.00
3348;DHT22;1687;49.540;8.574;2024-02-28T15:02:33;15.70;67.30
3348;DHT22;1687;49.540;8.574;2024-02-28T15:04:58;15.90;66.70
3348;DHT22;1687;49.540;8.574;2024-02-28T15:07:25;16.00;67.00
3348;DHT22;1687;49.540;8.574;2024-02-28T15:09:51;16.30;67.10
3348;DHT22;1687;49.540;8.574;2024-02-28T15:12:16;16.50;66.20
3348;DHT22;1687;49.540;8.574;2024-02-28T15:14:42;16.50;65.80
3348;DHT22;1687;49.540;8.574;2024-02-28T15:17:08;16.60;66.20
3348;DHT22;1687;49.540;8.574;2024-02-28T15:19:34;16.80;65.70
3348;DHT22;1687;49.540;8.574;2024-02-28T15:21:59;17.10;65.40
3348;DHT22;1687;49.540;8.574;2024-02-28T15:24:25;17.20;65.10
3348;DHT22;1687;49.540;8.574;2024-02-28T15:26:52;17.50;64.80
3348;DHT22;1687;49.540;8.574;2024-02-28T15:29:18;18.00;64.80
3348;DHT22;1687;49.540;8.574;2024-02-28T15:31:44;18.20;64.60
3348;DHT22;1687;49.540;8.574;2024-02-28T15:34:10;18.40;63.90
3348;DHT22;1687;49.540;8.574;2024-02-28T15:36:36;18.60;63.80
3348;DHT22;1687;49.540;8.574;2024-02-28T15:39:02;19.00;64.20
3348;DHT22;1687;49.540;8.574;2024-02-28T15:41:29;19.50;63.70
3348;DHT22;1687;49.540;8.574;2024-02-28T15:43:54;19.70;63.50
3348;DHT22;1687;49.540;8.574;2024-02-28T15:46:21;19.40;62.10
3348;DHT22;1687;49.540;8.574;2024-02-28T15:48:47;19.10;62.40
3348;DHT22;1687;49.540;8.574;2024-02-28T15:51:13;18.60;61.00
3348;DHT22;1687;49.540;8.574;2024-02-28T15:53:38;18.00;60.90
3348;DHT22;1687;49.540;8.574;2024-02-28T15:56:04;17.30;60.10
3348;DHT22;1687;49.540;8.574;2024-02-28T15:58:31;16.50;60.00
3348;DHT22;1687;49.540;8.574;2024-02-28T16:00:56;15.80;59.80
3348;DHT22;1687;49.540;8.574;2024-02-28T16:03:22;15.40;60.00
3348;DHT22;1687;49.540;8.574;2024-02-28T16:05:49;15.20;60.20
3348;DHT22;1687;49.540;8.574;2024-02-28T16:08:15;14.90;60.20